createdAt,value
2017-09-21T00:00:04.725Z,76.13
2017-09-21T00:02:32.192Z,76.10
2017-09-21T00:04:59.680Z,76.16
2017-09-21T00:07:27.153Z,76.51
2017-09-21T00:09:54.648Z,76.33
2017-09-21T00:12:22.101Z,76.21
2017-09-21T00:14:49.589Z,76.01
2017-09-21T00:17:17.038Z,75.97
2017-09-21T00:19:44.489Z,76.20
2017-09-21T00:22:11.977Z,76.17
2017-09-21T00:24:39.430Z,75.92
2017-09-21T00:27:06.909Z,75.88
2017-09-21T00:29:34.368Z,76.07
2017-09-21T00:32:01.849Z,76.19
2017-09-21T00:34:29.293Z,75.98
2017-09-21T00:36:56.777Z,75.55
2017-09-21T00:39:24.239Z,75.52
2017-09-21T00:41:51.709Z,75.90
2017-09-21T00:44:19.172Z,75.97
2017-09-21T00:46:46.696Z,75.49
2017-09-21T00:49:14.179Z,75.52
2017-09-21T00:51:41.653Z,75.42
2017-09-21T00:54:09.127Z,75.13
2017-09-21T00:56:36.580Z,75.37
2017-09-21T00:59:04.089Z,75.67
2017-09-21T01:01:31.582Z,75.35
2017-09-21T01:03:59.061Z,76.01
2017-09-21T01:06:26.516Z,76.33
2017-09-21T01:08:54.020Z,76.57
2017-09-21T01:11:21.462Z,76.89
2017-09-21T01:13:48.941Z,76.69
2017-09-21T01:16:16.394Z,76.50
2017-09-21T01:18:43.878Z,76.24
2017-09-21T01:21:11.357Z,76.21
2017-09-21T01:23:38.825Z,76.20
2017-09-21T01:26:06.354Z,76.00
2017-09-21T01:28:33.805Z,76.17
2017-09-21T01:31:01.336Z,75.89
2017-09-21T01:33:28.815Z,75.43
2017-09-21T01:35:56.305Z,75.54
2017-09-21T01:38:23.768Z,76.06
2017-09-21T01:40:51.216Z,76.24
2017-09-21T01:43:18.679Z,76.33
2017-09-21T01:45:46.133Z,77.29
2017-09-21T01:48:13.613Z,77.70
2017-09-21T01:50:41.065Z,77.36
2017-09-21T01:53:08.537Z,77.00
2017-09-21T01:55:36.017Z,76.82
2017-09-21T01:58:03.530Z,76.49
2017-09-21T02:00:31.022Z,76.64
2017-09-21T02:02:58.464Z,76.46
2017-09-21T02:05:25.945Z,75.88
2017-09-21T02:07:53.405Z,75.42
2017-09-21T02:10:20.883Z,75.27
2017-09-21T02:12:48.344Z,75.51
2017-09-21T02:15:15.828Z,75.59
2017-09-21T02:17:43.297Z,75.84
2017-09-21T02:20:10.780Z,75.54
2017-09-21T02:22:38.231Z,75.00
2017-09-21T02:25:05.706Z,75.11
2017-09-21T02:27:33.201Z,75.56
2017-09-21T02:30:00.637Z,75.69
2017-09-21T02:32:28.117Z,75.41
2017-09-21T02:34:55.572Z,75.17
2017-09-21T02:37:23.062Z,75.02
2017-09-21T02:39:50.519Z,75.11
2017-09-21T02:42:18.014Z,75.35
2017-09-21T02:44:45.475Z,75.54
2017-09-21T02:47:13.083Z,75.63
2017-09-21T02:49:40.517Z,75.76
2017-09-21T02:52:09.058Z,75.81
2017-09-21T02:54:36.533Z,75.54
2017-09-21T02:57:03.989Z,75.31
2017-09-21T02:59:31.469Z,75.21
2017-09-21T03:01:58.906Z,74.93
2017-09-21T03:04:26.384Z,75.16
2017-09-21T03:06:53.820Z,75.44
2017-09-21T03:09:21.290Z,75.31
2017-09-21T03:11:48.754Z,75.61
2017-09-21T03:14:16.375Z,75.31
2017-09-21T03:16:43.836Z,75.55
2017-09-21T03:19:11.313Z,75.76
2017-09-21T03:21:38.782Z,76.66
2017-09-21T03:24:06.221Z,76.91
2017-09-21T03:26:33.684Z,76.68
2017-09-21T03:29:01.152Z,76.27
2017-09-21T03:31:28.621Z,75.92
2017-09-21T03:33:56.062Z,75.79
2017-09-21T03:36:23.503Z,75.87
2017-09-21T03:38:50.981Z,75.38
2017-09-21T03:41:18.449Z,75.45
2017-09-21T03:43:45.920Z,75.17
2017-09-21T03:46:13.606Z,75.30
2017-09-21T03:48:41.080Z,75.13
2017-09-21T03:51:08.571Z,75.20
2017-09-21T03:53:36.057Z,75.27
2017-09-21T03:56:03.506Z,75.35
2017-09-21T03:58:30.972Z,75.37
2017-09-21T04:00:58.420Z,75.57
2017-09-21T04:03:25.896Z,75.89
2017-09-21T04:05:53.344Z,75.72
2017-09-21T04:08:20.817Z,75.64
2017-09-21T04:10:48.268Z,75.72
2017-09-21T04:13:15.749Z,75.60
2017-09-21T04:15:43.220Z,76.14
2017-09-21T04:18:10.665Z,75.95
2017-09-21T04:20:38.159Z,76.15
2017-09-21T04:23:05.604Z,76.28
2017-09-21T04:25:33.099Z,76.06
2017-09-21T04:28:00.551Z,75.72
2017-09-21T04:30:28.017Z,75.48
2017-09-21T04:32:55.491Z,75.55
2017-09-21T04:35:22.956Z,75.57
2017-09-21T04:37:50.420Z,75.54
2017-09-21T04:40:17.867Z,75.18
2017-09-21T04:42:45.426Z,75.20
2017-09-21T04:45:12.894Z,75.06
2017-09-21T04:47:40.365Z,75.38
2017-09-21T04:50:07.833Z,75.50
2017-09-21T04:52:35.301Z,75.86
2017-09-21T04:55:02.785Z,75.93
2017-09-21T04:57:30.254Z,75.98
2017-09-21T04:59:57.744Z,76.29
2017-09-21T05:02:25.213Z,76.19
2017-09-21T05:04:52.688Z,75.99
2017-09-21T05:07:20.145Z,76.07
2017-09-21T05:09:47.602Z,76.16
2017-09-21T05:12:15.084Z,76.40
2017-09-21T05:14:42.529Z,76.29
2017-09-21T05:17:10.004Z,75.89
2017-09-21T05:19:37.480Z,75.63
2017-09-21T05:22:05.069Z,75.93
2017-09-21T05:24:32.528Z,76.06
2017-09-21T05:26:59.978Z,75.89
2017-09-21T05:29:27.454Z,76.00
2017-09-21T05:31:54.902Z,75.96
2017-09-21T05:34:22.394Z,76.34
2017-09-21T05:36:49.861Z,76.34
2017-09-21T05:39:17.362Z,76.20
2017-09-21T05:41:44.818Z,75.70
2017-09-21T05:44:12.453Z,75.38
2017-09-21T05:46:40.623Z,75.58
2017-09-21T05:49:08.115Z,75.42
2017-09-21T05:51:35.576Z,75.72
2017-09-21T05:54:03.037Z,75.63
2017-09-21T05:56:30.524Z,75.81
2017-09-21T05:58:57.985Z,75.51
2017-09-21T06:01:25.465Z,75.87
2017-09-21T06:03:52.920Z,76.46
2017-09-21T06:06:20.410Z,76.97
2017-09-21T06:08:47.878Z,76.87
2017-09-21T06:11:15.351Z,76.17
2017-09-21T06:13:42.838Z,75.77
2017-09-21T06:16:10.379Z,75.93
2017-09-21T06:18:37.829Z,76.29
2017-09-21T06:21:05.365Z,76.93
2017-09-21T06:23:32.817Z,76.84
2017-09-21T06:26:00.328Z,76.52
2017-09-21T06:28:27.817Z,76.33
2017-09-21T06:30:55.261Z,76.12
2017-09-21T06:33:22.844Z,75.97
2017-09-21T06:35:50.300Z,75.80
2017-09-21T06:38:17.982Z,76.11
2017-09-21T06:40:45.480Z,76.15
2017-09-21T06:43:12.960Z,75.89
2017-09-21T06:45:40.452Z,75.76
2017-09-21T06:48:07.929Z,75.85
2017-09-21T06:50:35.410Z,75.74
2017-09-21T06:53:02.896Z,75.71
2017-09-21T06:55:30.377Z,75.83
2017-09-21T06:57:57.831Z,75.61
2017-09-21T07:00:25.309Z,75.41
2017-09-21T07:02:52.768Z,75.19
2017-09-21T07:05:20.252Z,74.56
2017-09-21T07:07:47.720Z,74.33
2017-09-21T07:10:15.211Z,74.22
2017-09-21T07:12:42.709Z,74.51
2017-09-21T07:15:10.162Z,74.28
2017-09-21T07:17:37.645Z,74.14
2017-09-21T07:20:05.141Z,73.81
2017-09-21T07:22:32.624Z,74.01
2017-09-21T07:25:00.113Z,73.85
2017-09-21T07:27:27.599Z,73.73
2017-09-21T07:29:55.070Z,74.43
2017-09-21T07:32:22.549Z,75.00
2017-09-21T07:34:50.024Z,74.47
2017-09-21T07:37:17.545Z,74.49
2017-09-21T07:39:45.070Z,74.26
2017-09-21T07:42:12.552Z,74.09
2017-09-21T07:44:40.018Z,73.85
2017-09-21T07:47:07.524Z,73.84
2017-09-21T07:49:35.066Z,73.94
2017-09-21T07:52:02.565Z,73.72
2017-09-21T07:54:30.061Z,73.46
2017-09-21T07:56:57.518Z,73.08
2017-09-21T07:59:24.995Z,72.56
2017-09-21T08:01:52.470Z,72.35
2017-09-21T08:04:19.976Z,72.37
2017-09-21T08:06:47.444Z,72.21
2017-09-21T08:09:14.983Z,71.69
2017-09-21T08:11:42.433Z,71.52
2017-09-21T08:14:10.073Z,71.37
2017-09-21T08:16:37.562Z,71.09
2017-09-21T08:19:05.017Z,70.72
2017-09-21T08:21:32.507Z,70.53
2017-09-21T08:24:00.010Z,70.55
2017-09-21T08:26:27.529Z,70.63
2017-09-21T08:28:55.075Z,71.06
2017-09-21T08:31:22.565Z,71.02
2017-09-21T08:33:50.112Z,70.87
2017-09-21T08:36:17.613Z,70.42
2017-09-21T08:38:45.125Z,70.00
2017-09-21T08:41:12.624Z,69.76
2017-09-21T08:43:40.143Z,70.07
2017-09-21T08:46:07.653Z,70.29
2017-09-21T08:48:35.270Z,70.05
2017-09-21T08:51:02.754Z,70.06
2017-09-21T08:53:30.265Z,70.06
2017-09-21T08:55:57.726Z,69.92
2017-09-21T08:58:25.244Z,69.82
2017-09-21T09:00:52.733Z,69.62
2017-09-21T09:03:20.227Z,69.41
2017-09-21T09:05:47.685Z,69.56
2017-09-21T09:08:15.674Z,69.58
2017-09-21T09:10:43.193Z,69.34
2017-09-21T09:13:10.653Z,69.07
2017-09-21T09:15:38.144Z,68.55
2017-09-21T09:18:05.613Z,68.50
2017-09-21T09:20:33.126Z,68.04
2017-09-21T09:23:01.009Z,68.09
2017-09-21T09:25:28.471Z,67.29
2017-09-21T09:27:55.933Z,66.84
2017-09-21T09:30:23.421Z,66.76
2017-09-21T09:32:50.904Z,66.25
2017-09-21T09:35:18.389Z,66.11
2017-09-21T09:37:45.865Z,65.76
2017-09-21T09:40:13.349Z,64.74
2017-09-21T09:42:40.885Z,65.22
2017-09-21T09:45:08.361Z,65.51
2017-09-21T09:47:35.845Z,65.39
2017-09-21T09:50:03.368Z,64.70
2017-09-21T09:52:30.936Z,65.01
2017-09-21T09:54:59.232Z,63.09
2017-09-21T09:57:26.703Z,63.28
2017-09-21T09:59:54.190Z,63.09
2017-09-21T10:02:21.657Z,62.65
2017-09-21T10:04:49.512Z,61.68
2017-09-21T10:07:16.968Z,60.82
2017-09-21T10:09:44.485Z,61.19
2017-09-21T10:12:12.048Z,61.15
2017-09-21T10:14:39.563Z,58.16
2017-09-21T10:17:07.068Z,57.41
2017-09-21T10:19:34.530Z,57.36
2017-09-21T10:22:02.023Z,58.08
2017-09-21T10:24:29.476Z,58.12
2017-09-21T10:26:56.956Z,57.56
2017-09-21T10:29:24.437Z,57.31
2017-09-21T10:31:51.882Z,57.55
2017-09-21T10:34:19.434Z,57.63
2017-09-21T10:36:46.918Z,57.55
2017-09-21T10:39:14.416Z,56.95
2017-09-21T10:41:42.065Z,55.92
2017-09-21T10:44:09.541Z,56.88
2017-09-21T10:46:37.037Z,57.34
2017-09-21T10:49:04.514Z,56.87
2017-09-21T10:51:32.048Z,56.49
2017-09-21T10:53:59.544Z,56.48
2017-09-21T10:56:27.033Z,55.80
2017-09-21T10:58:54.574Z,54.79
2017-09-21T11:01:22.227Z,54.00
2017-09-21T11:03:49.697Z,54.48
2017-09-21T11:06:17.153Z,54.14
2017-09-21T11:08:44.638Z,52.83
2017-09-21T11:11:12.076Z,52.34
2017-09-21T11:13:39.553Z,53.15
2017-09-21T11:16:07.001Z,52.20
2017-09-21T11:18:34.481Z,52.76
2017-09-21T11:21:02.010Z,52.50
2017-09-21T11:23:29.534Z,51.96
2017-09-21T11:25:57.449Z,51.21
2017-09-21T11:28:24.892Z,50.07
2017-09-21T11:30:52.375Z,49.14
2017-09-21T11:33:19.926Z,49.47
2017-09-21T11:35:48.001Z,47.63
2017-09-21T11:38:15.441Z,45.94
2017-09-21T11:40:42.997Z,46.14
2017-09-21T11:43:10.477Z,46.10
2017-09-21T11:45:38.008Z,47.20
2017-09-21T11:48:05.461Z,46.00
2017-09-21T11:50:32.938Z,46.23
2017-09-21T11:53:00.394Z,46.53
2017-09-21T11:55:27.873Z,47.38
2017-09-21T11:57:55.373Z,47.13
2017-09-21T12:00:22.878Z,47.28
2017-09-21T12:02:50.330Z,47.33
2017-09-21T12:05:17.832Z,47.26
2017-09-21T12:07:45.327Z,47.14
2017-09-21T12:10:12.775Z,46.78
2017-09-21T12:12:40.253Z,46.63
2017-09-21T12:15:07.719Z,46.60
2017-09-21T12:17:35.582Z,46.46
2017-09-21T12:20:04.000Z,46.98
2017-09-21T12:22:31.496Z,46.11
2017-09-21T12:24:58.941Z,46.31
2017-09-21T12:27:26.392Z,45.92
2017-09-21T12:29:53.901Z,45.91
2017-09-21T12:32:21.360Z,44.37
2017-09-21T12:34:48.824Z,44.62
2017-09-21T12:37:16.287Z,45.11
2017-09-21T12:39:43.773Z,44.76
2017-09-21T12:42:11.295Z,45.22
2017-09-21T12:44:38.953Z,45.71
2017-09-21T12:47:06.372Z,45.49
2017-09-21T12:49:34.676Z,45.86
2017-09-21T12:52:02.162Z,46.14
2017-09-21T12:54:29.628Z,46.37
2017-09-21T12:56:57.140Z,45.59
2017-09-21T12:59:25.983Z,44.80
2017-09-21T13:01:53.470Z,44.47
2017-09-21T13:04:21.197Z,44.81
2017-09-21T13:06:48.698Z,42.87
2017-09-21T13:09:16.146Z,42.83
2017-09-21T13:11:43.642Z,43.09
2017-09-21T13:14:11.149Z,42.37
2017-09-21T13:16:38.595Z,42.04
2017-09-21T13:19:06.070Z,42.28
2017-09-21T13:21:33.549Z,41.99
2017-09-21T13:24:01.033Z,41.28
2017-09-21T13:26:28.490Z,40.03
2017-09-21T13:28:55.994Z,39.96
2017-09-21T13:31:23.464Z,37.64
2017-09-21T13:33:50.947Z,38.16
2017-09-21T13:36:18.413Z,38.33
2017-09-21T13:38:45.890Z,37.70
2017-09-21T13:41:13.374Z,37.96
2017-09-21T13:43:40.967Z,38.67
2017-09-21T13:46:08.490Z,38.15
2017-09-21T13:48:35.952Z,37.59
2017-09-21T13:51:03.437Z,37.53
2017-09-21T13:53:30.939Z,37.24
2017-09-21T13:55:58.439Z,35.59
2017-09-21T13:58:25.924Z,36.48
2017-09-21T14:00:53.401Z,35.70
2017-09-21T14:03:20.944Z,34.77
2017-09-21T14:05:48.605Z,33.93
2017-09-21T14:08:16.098Z,34.47
2017-09-21T14:10:43.675Z,32.34
2017-09-21T14:13:11.183Z,33.59
2017-09-21T14:15:38.867Z,34.99
2017-09-21T14:18:06.372Z,33.41
2017-09-21T14:20:34.132Z,33.66
2017-09-21T14:23:01.655Z,34.32
2017-09-21T14:25:29.129Z,32.96
2017-09-21T14:27:56.621Z,33.64
2017-09-21T14:30:24.110Z,30.63
2017-09-21T14:32:51.613Z,30.72
2017-09-21T14:35:19.089Z,29.38
2017-09-21T14:37:46.552Z,30.88
2017-09-21T14:40:14.093Z,30.04
2017-09-21T14:42:41.568Z,30.69
2017-09-21T14:45:09.086Z,30.24
2017-09-21T14:47:36.633Z,29.31
2017-09-21T14:50:04.169Z,30.35
2017-09-21T14:52:31.662Z,29.77
2017-09-21T14:54:59.174Z,29.35
2017-09-21T14:57:26.674Z,29.40
2017-09-21T14:59:54.183Z,28.74
2017-09-21T15:02:21.655Z,29.99
2017-09-21T15:04:49.233Z,29.39
2017-09-21T15:07:16.732Z,29.74
2017-09-21T15:09:44.214Z,29.86
2017-09-21T15:12:11.711Z,29.66
2017-09-21T15:14:39.173Z,30.16
2017-09-21T15:17:06.705Z,30.38
2017-09-21T15:19:34.211Z,30.73
2017-09-21T15:22:01.741Z,30.26
2017-09-21T15:24:29.210Z,30.89
2017-09-21T15:26:57.012Z,31.07
2017-09-21T15:29:24.497Z,32.33
2017-09-21T15:31:51.985Z,33.07
2017-09-21T15:34:19.458Z,34.25
2017-09-21T15:36:46.917Z,43.87
2017-09-21T15:39:14.412Z,39.95
2017-09-21T15:41:41.964Z,42.11
2017-09-21T15:44:09.444Z,40.93
2017-09-21T15:46:36.929Z,41.69
2017-09-21T15:49:04.408Z,41.35
2017-09-21T15:51:31.917Z,41.99
2017-09-21T15:53:59.405Z,41.66
2017-09-21T15:56:26.958Z,42.13
2017-09-21T15:58:54.445Z,42.54
2017-09-21T16:01:21.962Z,42.90
2017-09-21T16:03:49.464Z,42.97
2017-09-21T16:06:16.973Z,42.75
2017-09-21T16:08:44.502Z,43.46
2017-09-21T16:11:12.001Z,44.05
2017-09-21T16:13:39.454Z,44.34
2017-09-21T16:16:06.952Z,44.30
2017-09-21T16:18:34.993Z,44.71
2017-09-21T16:21:02.487Z,44.83
2017-09-21T16:23:29.960Z,45.12
2017-09-21T16:25:57.457Z,46.19
2017-09-21T16:28:24.927Z,45.62
2017-09-21T16:30:52.414Z,46.04
2017-09-21T16:33:19.885Z,46.02
2017-09-21T16:35:47.504Z,46.04
2017-09-21T16:38:14.974Z,44.33
2017-09-21T16:40:42.433Z,44.28
2017-09-21T16:43:09.917Z,44.53
2017-09-21T16:45:37.369Z,44.62
2017-09-21T16:48:04.893Z,45.39
2017-09-21T16:50:32.365Z,46.16
2017-09-21T16:52:59.883Z,46.28
2017-09-21T16:55:27.398Z,46.72
2017-09-21T16:57:54.950Z,47.17
2017-09-21T17:00:22.584Z,47.13
2017-09-21T17:02:50.164Z,47.24
2017-09-21T17:05:17.799Z,47.63
2017-09-21T17:07:45.274Z,48.30
2017-09-21T17:10:12.753Z,48.81
2017-09-21T17:12:40.282Z,48.98
2017-09-21T17:15:07.769Z,49.37
2017-09-21T17:17:35.266Z,49.74
2017-09-21T17:20:02.806Z,50.31
2017-09-21T17:22:30.287Z,50.56
2017-09-21T17:24:57.824Z,51.05
2017-09-21T17:27:25.274Z,52.02
2017-09-21T17:29:52.769Z,52.72
2017-09-21T17:32:20.283Z,53.05
2017-09-21T17:34:48.369Z,53.61
2017-09-21T17:37:15.832Z,54.46
2017-09-21T17:39:43.304Z,55.02
2017-09-21T17:42:10.763Z,55.43
2017-09-21T17:44:38.254Z,55.67
2017-09-21T17:47:05.701Z,56.21
2017-09-21T17:49:33.152Z,56.62
2017-09-21T17:52:00.633Z,57.10
2017-09-21T17:54:28.089Z,57.87
2017-09-21T17:56:55.577Z,58.61
2017-09-21T17:59:23.061Z,59.80
2017-09-21T18:01:50.547Z,60.06
2017-09-21T18:04:18.114Z,60.37
2017-09-21T18:06:45.597Z,60.70
2017-09-21T18:09:13.065Z,61.16
2017-09-21T18:11:40.537Z,61.53
2017-09-21T18:14:08.018Z,61.42
2017-09-21T18:16:35.477Z,62.10
2017-09-21T18:19:02.949Z,62.33
2017-09-21T18:21:30.401Z,62.70
2017-09-21T18:23:57.922Z,62.34
2017-09-21T18:26:25.389Z,62.60
2017-09-21T18:28:52.921Z,63.14
2017-09-21T18:31:20.387Z,63.24
2017-09-21T18:33:47.917Z,64.06
2017-09-21T18:36:15.395Z,64.19
2017-09-21T18:38:42.843Z,64.55
2017-09-21T18:41:10.321Z,64.64
2017-09-21T18:43:37.853Z,64.90
2017-09-21T18:46:05.363Z,65.05
2017-09-21T18:48:32.854Z,65.10
2017-09-21T18:51:00.344Z,65.70
2017-09-21T18:53:27.830Z,66.09
2017-09-21T18:55:55.321Z,66.32
2017-09-21T18:58:22.792Z,66.27
2017-09-21T19:00:50.257Z,66.31
2017-09-21T19:03:17.798Z,66.33
2017-09-21T19:05:45.270Z,66.64
2017-09-21T19:08:12.772Z,66.63
2017-09-21T19:10:40.231Z,66.63
2017-09-21T19:13:07.727Z,66.76
2017-09-21T19:15:35.191Z,67.13
2017-09-21T19:18:02.709Z,67.25
2017-09-21T19:20:30.179Z,67.47
2017-09-21T19:22:57.687Z,67.26
2017-09-21T19:25:25.195Z,67.45
2017-09-21T19:27:52.662Z,67.84
2017-09-21T19:30:20.188Z,68.08
2017-09-21T19:32:49.280Z,67.68
2017-09-21T19:35:16.790Z,67.63
2017-09-21T19:37:44.250Z,67.74
2017-09-21T19:40:11.750Z,67.74
2017-09-21T19:42:39.230Z,68.00
2017-09-21T19:45:06.767Z,68.36
2017-09-21T19:47:34.241Z,68.77
2017-09-21T19:50:01.750Z,68.84
2017-09-21T19:52:29.282Z,69.23
2017-09-21T19:54:56.772Z,68.96
2017-09-21T19:57:24.269Z,69.52
2017-09-21T19:59:51.730Z,69.29
2017-09-21T20:02:19.228Z,70.08
2017-09-21T20:04:47.290Z,70.03
2017-09-21T20:07:14.797Z,70.15
2017-09-21T20:09:42.272Z,70.33
2017-09-21T20:12:09.776Z,70.38
2017-09-21T20:14:37.283Z,70.38
2017-09-21T20:17:04.809Z,70.09
2017-09-21T20:19:32.270Z,70.04
2017-09-21T20:21:59.769Z,69.94
2017-09-21T20:24:27.277Z,69.67
2017-09-21T20:26:54.728Z,70.24
2017-09-21T20:29:22.221Z,70.24
2017-09-21T20:31:49.703Z,70.32
2017-09-21T20:34:17.209Z,70.14
2017-09-21T20:36:44.666Z,70.39
2017-09-21T20:39:12.144Z,70.55
2017-09-21T20:41:39.669Z,70.24
2017-09-21T20:44:07.125Z,70.15
2017-09-21T20:46:34.641Z,70.22
2017-09-21T20:49:02.097Z,69.99
2017-09-21T20:51:29.577Z,69.80
2017-09-21T20:53:57.045Z,69.82
2017-09-21T20:56:24.556Z,70.63
2017-09-21T20:58:52.059Z,71.17
2017-09-21T21:01:19.534Z,71.44
2017-09-21T21:03:47.088Z,71.39
2017-09-21T21:06:14.554Z,71.15
2017-09-21T21:08:42.133Z,70.77
2017-09-21T21:11:09.585Z,70.92
2017-09-21T21:13:37.057Z,70.81
2017-09-21T21:16:04.636Z,70.74
2017-09-21T21:18:32.149Z,71.28
2017-09-21T21:20:59.634Z,71.08
2017-09-21T21:23:27.076Z,70.96
2017-09-21T21:25:54.566Z,71.11
2017-09-21T21:28:22.038Z,70.98
2017-09-21T21:30:49.538Z,71.06
2017-09-21T21:33:17.015Z,71.17
2017-09-21T21:35:44.497Z,71.15
2017-09-21T21:38:11.996Z,71.27
2017-09-21T21:40:39.494Z,71.15
2017-09-21T21:43:06.965Z,71.22
2017-09-21T21:45:34.436Z,71.25
2017-09-21T21:48:01.941Z,71.24
2017-09-21T21:50:29.441Z,71.03
2017-09-21T21:52:56.962Z,71.18
2017-09-21T21:55:24.463Z,71.28
2017-09-21T21:57:51.947Z,71.35
2017-09-21T22:00:19.441Z,71.13
2017-09-21T22:02:46.895Z,71.00
2017-09-21T22:05:14.380Z,71.03
2017-09-21T22:07:41.849Z,71.28
2017-09-21T22:10:09.320Z,71.30
2017-09-21T22:12:36.766Z,71.35
2017-09-21T22:15:04.277Z,71.66
2017-09-21T22:17:31.767Z,71.42
2017-09-21T22:19:59.269Z,71.83
2017-09-21T22:22:26.717Z,72.22
2017-09-21T22:24:54.171Z,72.27
2017-09-21T22:27:21.673Z,72.12
2017-09-21T22:29:49.129Z,71.79
2017-09-21T22:32:16.622Z,71.88
2017-09-21T22:34:44.071Z,71.98
2017-09-21T22:37:11.738Z,71.84
2017-09-21T22:39:39.205Z,71.92
2017-09-21T22:42:07.482Z,71.65
2017-09-21T22:44:35.013Z,72.04
2017-09-21T22:47:02.476Z,72.38
2017-09-21T22:49:30.012Z,72.41
2017-09-21T22:51:57.502Z,72.46
2017-09-21T22:54:25.037Z,71.88
2017-09-21T22:56:52.550Z,71.91
2017-09-21T22:59:20.031Z,72.37
2017-09-21T23:01:47.493Z,72.58
2017-09-21T23:04:15.011Z,72.92
2017-09-21T23:06:42.475Z,72.92
2017-09-21T23:09:09.962Z,72.74
2017-09-21T23:11:37.410Z,72.79
2017-09-21T23:14:04.885Z,72.73
2017-09-21T23:16:32.338Z,73.03
2017-09-21T23:19:00.084Z,72.96
2017-09-21T23:21:27.541Z,73.05
2017-09-21T23:23:55.007Z,73.51
2017-09-21T23:26:22.502Z,73.59
2017-09-21T23:28:49.949Z,73.41
2017-09-21T23:31:18.057Z,73.06
2017-09-21T23:33:45.497Z,72.91
2017-09-21T23:36:12.970Z,72.83
2017-09-21T23:38:40.441Z,72.97
2017-09-21T23:41:07.945Z,73.06
2017-09-21T23:43:35.433Z,72.76
2017-09-21T23:46:02.905Z,72.23
2017-09-21T23:48:30.407Z,71.94
2017-09-21T23:50:57.868Z,71.84
2017-09-21T23:53:25.372Z,72.12
2017-09-21T23:55:52.832Z,72.52
2017-09-21T23:58:20.352Z,72.57
